createdAt,value
2023-09-20T00:02:00.618Z,98287.23
2023-09-20T00:05:29.165Z,98288.77
2023-09-20T00:08:38.162Z,98289.35
2023-09-20T00:11:10.234Z,98292.40
2023-09-20T00:13:38.288Z,98292.19
2023-09-20T00:17:08.200Z,98295.06
2023-09-20T00:20:17.836Z,98298.39
2023-09-20T00:22:46.577Z,98299.95
2023-09-20T00:25:16.224Z,98293.56
2023-09-20T00:27:47.511Z,98294.16
2023-09-20T00:30:16.874Z,98292.53
2023-09-20T00:32:45.554Z,98293.88
2023-09-20T00:36:14.803Z,98293.73
2023-09-20T00:40:43.399Z,98295.11
2023-09-20T00:45:12.261Z,98297.26
2023-09-20T00:48:41.680Z,98294.64
2023-09-20T00:51:10.746Z,98296.99
2023-09-20T00:53:39.804Z,98297.40
2023-09-20T00:56:11.188Z,98301.41
2023-09-20T00:59:40.058Z,98300.86
2023-09-20T01:02:54.161Z,98297.22
2023-09-20T01:05:27.222Z,98300.64
2023-09-20T01:08:46.996Z,98304.05
2023-09-20T01:12:16.261Z,98305.83
2023-09-20T01:15:05.667Z,98301.00
2023-09-20T01:18:54.450Z,98305.61
2023-09-20T01:23:23.655Z,98306.23
2023-09-20T01:25:52.233Z,98307.45
2023-09-20T01:29:04.079Z,98306.90
2023-09-20T01:32:53.281Z,98303.98
2023-09-20T01:37:05.536Z,98306.91
2023-09-20T01:40:36.781Z,98305.20
2023-09-20T01:43:27.242Z,98307.77
2023-09-20T01:45:56.161Z,98305.74
2023-09-20T01:49:25.114Z,98305.39
2023-09-20T01:52:08.061Z,98312.72
2023-09-20T01:54:36.639Z,98312.31
2023-09-20T01:57:07.213Z,98315.32
2023-09-20T01:59:35.286Z,98318.23
2023-09-20T02:02:04.708Z,98315.64
2023-09-20T02:04:33.302Z,98315.21
2023-09-20T02:07:01.265Z,98320.98
2023-09-20T02:10:39.122Z,98322.05
2023-09-20T02:13:09.334Z,98322.40
2023-09-20T02:15:37.554Z,98319.00
2023-09-20T02:19:06.509Z,98317.72
2023-09-20T02:22:35.885Z,98314.88
2023-09-20T02:25:10.161Z,98320.69
2023-09-20T02:27:44.044Z,98324.05
2023-09-20T02:30:16.429Z,98324.30
2023-09-20T02:33:45.848Z,98320.41
2023-09-20T02:36:18.135Z,98320.86
2023-09-20T02:38:46.292Z,98320.75
2023-09-20T02:42:15.000Z,98318.64
2023-09-20T02:45:46.743Z,98319.95
2023-09-20T02:48:15.711Z,98320.11
2023-09-20T02:50:46.234Z,98321.02
2023-09-20T02:54:14.941Z,98323.23
2023-09-20T02:56:44.755Z,98318.92
2023-09-20T03:00:13.656Z,98318.13
2023-09-20T03:04:04.809Z,98318.11
2023-09-20T03:07:55.294Z,98317.22
2023-09-20T03:10:46.494Z,98316.11
2023-09-20T03:13:18.507Z,98317.71
2023-09-20T03:15:50.318Z,98314.37
2023-09-20T03:18:24.289Z,98315.83
2023-09-20T03:21:06.788Z,98314.54
2023-09-20T03:23:35.258Z,98320.67
2023-09-20T03:26:05.849Z,98322.20
2023-09-20T03:28:37.441Z,98325.36
2023-09-20T03:31:11.737Z,98323.77
2023-09-20T03:34:40.976Z,98325.48
2023-09-20T03:39:10.191Z,98324.72
2023-09-20T03:43:19.209Z,98329.26
2023-09-20T03:45:52.703Z,98325.84
2023-09-20T03:48:21.870Z,98325.43
2023-09-20T03:50:50.989Z,98324.41
2023-09-20T03:54:20.966Z,98324.75
2023-09-20T03:58:49.476Z,98325.30
2023-09-20T04:02:57.941Z,98326.84
2023-09-20T04:07:26.669Z,98327.13
2023-09-20T04:09:54.718Z,98324.52
2023-09-20T04:12:24.598Z,98328.49
2023-09-20T04:15:53.551Z,98326.60
2023-09-20T04:20:22.368Z,98336.33
2023-09-20T04:23:46.493Z,98335.92
2023-09-20T04:26:54.537Z,98334.90
2023-09-20T04:30:05.005Z,98336.15
2023-09-20T04:32:34.360Z,98343.73
2023-09-20T04:36:04.388Z,98338.88
2023-09-20T04:39:32.701Z,98344.79
2023-09-20T04:42:00.818Z,98343.91
2023-09-20T04:44:29.065Z,98342.92
2023-09-20T04:47:57.975Z,98341.55
2023-09-20T04:52:06.798Z,98345.45
2023-09-20T04:55:57.373Z,98351.13
2023-09-20T04:58:34.479Z,98352.21
2023-09-20T05:01:02.474Z,98355.08
2023-09-20T05:03:30.933Z,98355.57
2023-09-20T05:05:59.338Z,98353.43
2023-09-20T05:08:27.861Z,98355.13
2023-09-20T05:10:57.044Z,98351.92
2023-09-20T05:13:25.748Z,98357.64
2023-09-20T05:15:53.948Z,98354.56
2023-09-20T05:18:22.719Z,98355.08
2023-09-20T05:20:50.968Z,98361.95
2023-09-20T05:23:19.184Z,98367.83
2023-09-20T05:25:49.663Z,98374.98
2023-09-20T05:28:18.025Z,98373.62
2023-09-20T05:30:49.988Z,98371.45
2023-09-20T05:33:18.415Z,98371.89
2023-09-20T05:35:48.598Z,98372.55
2023-09-20T05:38:37.716Z,98371.21
2023-09-20T05:41:05.974Z,98370.82
2023-09-20T05:43:38.491Z,98370.67
2023-09-20T05:46:08.869Z,98372.30
2023-09-20T05:48:37.535Z,98369.39
2023-09-20T05:51:05.679Z,98374.74
2023-09-20T05:53:35.016Z,98377.42
2023-09-20T05:56:09.496Z,98380.48
2023-09-20T05:58:39.930Z,98381.09
2023-09-20T06:01:11.717Z,98378.67
2023-09-20T06:03:41.474Z,98385.00
2023-09-20T06:06:09.620Z,98383.91
2023-09-20T06:08:38.045Z,98389.02
2023-09-20T06:11:06.203Z,98390.75
2023-09-20T06:13:37.470Z,98392.12
2023-09-20T06:16:10.004Z,98393.98
2023-09-20T06:19:06.951Z,98394.92
2023-09-20T06:21:39.472Z,98394.38
2023-09-20T06:24:14.418Z,98393.70
2023-09-20T06:26:42.497Z,98397.11
2023-09-20T06:29:30.521Z,98400.52
2023-09-20T06:31:58.621Z,98405.42
2023-09-20T06:34:27.723Z,98404.92
2023-09-20T06:36:55.874Z,98405.95
2023-09-20T06:40:45.924Z,98406.51
2023-09-20T06:43:14.450Z,98403.79
2023-09-20T06:45:52.577Z,98405.89
2023-09-20T06:48:28.442Z,98404.58
2023-09-20T06:50:58.225Z,98404.70
2023-09-20T06:53:26.719Z,98403.18
2023-09-20T06:55:56.447Z,98404.11
2023-09-20T06:58:46.363Z,98405.32
2023-09-20T07:01:15.157Z,98406.55
2023-09-20T07:03:43.454Z,98416.53
2023-09-20T07:07:51.805Z,98414.54
2023-09-20T07:12:00.848Z,98418.06
2023-09-20T07:15:31.529Z,98423.81
2023-09-20T07:18:00.512Z,98424.71
2023-09-20T07:20:55.981Z,98430.49
2023-09-20T07:23:25.323Z,98435.39
2023-09-20T07:25:53.763Z,98438.53
2023-09-20T07:28:23.899Z,98445.14
2023-09-20T07:31:52.396Z,98444.25
2023-09-20T07:35:43.842Z,98449.27
2023-09-20T07:38:52.062Z,98450.40
2023-09-20T07:42:23.052Z,98453.94
2023-09-20T07:46:35.820Z,98456.64
2023-09-20T07:49:10.618Z,98459.65
2023-09-20T07:51:38.722Z,98464.56
2023-09-20T07:54:10.794Z,98461.78
2023-09-20T07:56:43.317Z,98459.61
2023-09-20T07:59:14.781Z,98459.52
2023-09-20T08:01:43.125Z,98453.70
2023-09-20T08:04:12.241Z,98457.83
2023-09-20T08:06:41.783Z,98457.39
2023-09-20T08:09:12.478Z,98462.58
2023-09-20T08:12:41.186Z,98465.70
2023-09-20T08:15:29.873Z,98466.34
2023-09-20T08:18:16.724Z,98459.27
2023-09-20T08:20:45.048Z,98462.85
2023-09-20T08:24:12.041Z,98463.45
2023-09-20T08:28:39.284Z,98461.70
2023-09-20T08:33:06.527Z,98467.60
2023-09-20T08:37:33.538Z,98469.66
2023-09-20T08:41:49.153Z,98470.70
2023-09-20T08:46:15.582Z,98456.80
2023-09-20T08:49:02.864Z,98460.44
2023-09-20T08:52:14.363Z,98459.23
2023-09-20T08:55:21.713Z,98466.88
2023-09-20T08:58:09.914Z,98458.19
2023-09-20T09:00:41.776Z,98458.48
2023-09-20T09:03:10.967Z,98456.79
2023-09-20T09:05:41.806Z,98454.14
2023-09-20T09:08:11.683Z,98456.08
2023-09-20T09:10:39.864Z,98455.79
2023-09-20T09:14:08.630Z,98459.63
2023-09-20T09:17:05.076Z,98461.66
2023-09-20T09:19:33.513Z,98461.86
2023-09-20T09:22:22.250Z,98461.90
2023-09-20T09:24:50.427Z,98459.10
2023-09-20T09:27:19.598Z,98456.80
2023-09-20T09:29:48.382Z,98460.16
2023-09-20T09:32:16.594Z,98457.16
2023-09-20T09:34:45.893Z,98456.83
2023-09-20T09:37:17.024Z,98456.40
2023-09-20T09:40:01.465Z,98453.91
2023-09-20T09:42:29.876Z,98455.38
2023-09-20T09:45:00.067Z,98450.95
2023-09-20T09:47:31.449Z,98451.20
2023-09-20T09:50:02.627Z,98444.02
2023-09-20T09:53:31.656Z,98440.19
2023-09-20T09:56:26.316Z,98438.86
2023-09-20T09:58:54.407Z,98437.70
2023-09-20T10:01:24.085Z,98445.34
2023-09-20T10:04:52.981Z,98433.03
2023-09-20T10:07:28.799Z,98435.59
2023-09-20T10:10:10.230Z,98430.40
2023-09-20T10:12:39.770Z,98435.23
2023-09-20T10:15:08.837Z,98436.13
2023-09-20T10:17:52.656Z,98434.91
2023-09-20T10:20:21.029Z,98436.93
2023-09-20T10:22:49.211Z,98435.38
2023-09-20T10:25:38.312Z,98442.17
2023-09-20T10:28:10.676Z,98446.63
2023-09-20T10:30:57.626Z,98437.64
2023-09-20T10:34:29.705Z,98435.37
2023-09-20T10:37:12.433Z,98427.23
2023-09-20T10:39:43.892Z,98430.46
2023-09-20T10:42:14.534Z,98426.70
2023-09-20T10:44:44.759Z,98425.60
2023-09-20T10:47:15.929Z,98426.89
2023-09-20T10:49:48.945Z,98421.66
2023-09-20T10:52:59.723Z,98418.16
2023-09-20T10:55:38.167Z,98409.09
2023-09-20T10:58:07.050Z,98403.40
2023-09-20T11:00:49.056Z,98403.86
2023-09-20T11:03:20.165Z,98393.64
2023-09-20T11:05:51.784Z,98390.27
2023-09-20T11:08:26.138Z,98388.78
2023-09-20T11:11:08.001Z,98385.48
2023-09-20T11:13:36.692Z,98373.77
2023-09-20T11:16:06.410Z,98378.98
2023-09-20T11:18:35.752Z,98373.96
2023-09-20T11:21:05.739Z,98380.44
2023-09-20T11:23:34.591Z,98378.15
2023-09-20T11:26:06.124Z,98378.98
2023-09-20T11:28:36.025Z,98377.66
2023-09-20T11:31:04.445Z,98371.73
2023-09-20T11:33:32.499Z,98374.27
2023-09-20T11:36:01.020Z,98372.99
2023-09-20T11:38:29.432Z,98365.93
2023-09-20T11:40:58.069Z,98354.60
2023-09-20T11:43:29.944Z,98355.70
2023-09-20T11:46:02.041Z,98354.89
2023-09-20T11:48:30.921Z,98351.58
2023-09-20T11:50:59.179Z,98349.30
2023-09-20T11:53:31.594Z,98351.66
2023-09-20T11:56:02.155Z,98348.59
2023-09-20T11:58:38.100Z,98345.81
2023-09-20T12:01:10.018Z,98345.84
2023-09-20T12:03:38.747Z,98345.33
2023-09-20T12:06:08.750Z,98344.48
2023-09-20T12:08:37.030Z,98343.32
2023-09-20T12:11:05.336Z,98340.73
2023-09-20T12:13:33.345Z,98343.35
2023-09-20T12:16:39.741Z,98336.00
2023-09-20T12:19:08.481Z,98333.29
2023-09-20T12:21:36.647Z,98334.80
2023-09-20T12:24:05.739Z,98325.91
2023-09-20T12:26:35.248Z,98313.66
2023-09-20T12:29:03.453Z,98314.27
2023-09-20T12:31:31.573Z,98312.43
2023-09-20T12:34:02.517Z,98309.95
2023-09-20T12:36:31.480Z,98306.61
2023-09-20T12:39:02.817Z,98304.70
2023-09-20T12:41:31.177Z,98306.17
2023-09-20T12:43:59.875Z,98296.83
2023-09-20T12:47:28.924Z,98300.25
2023-09-20T12:51:57.792Z,98301.66
2023-09-20T12:56:06.750Z,98300.23
2023-09-20T12:58:43.602Z,98294.55
2023-09-20T13:01:12.004Z,98290.54
2023-09-20T13:03:45.713Z,98291.23
2023-09-20T13:06:15.479Z,98285.70
2023-09-20T13:08:43.710Z,98279.48
2023-09-20T13:11:11.908Z,98277.95
2023-09-20T13:13:42.671Z,98276.59
2023-09-20T13:16:11.323Z,98275.56
2023-09-20T13:19:20.255Z,98272.85
2023-09-20T13:21:48.322Z,98277.90
2023-09-20T13:24:16.730Z,98278.23
2023-09-20T13:26:45.550Z,98280.51
2023-09-20T13:30:13.380Z,98273.21
2023-09-20T13:32:43.029Z,98269.67
2023-09-20T13:35:12.358Z,98265.56
2023-09-20T13:37:48.575Z,98267.12
2023-09-20T13:40:19.501Z,98258.80
2023-09-20T13:42:47.835Z,98255.82
2023-09-20T13:45:19.859Z,98256.50
2023-09-20T13:47:51.222Z,98257.86
2023-09-20T13:50:19.773Z,98257.82
2023-09-20T13:52:48.290Z,98258.21
2023-09-20T13:55:23.337Z,98250.45
2023-09-20T13:57:57.020Z,98249.13
2023-09-20T14:00:29.179Z,98249.88
2023-09-20T14:02:58.723Z,98249.44
2023-09-20T14:05:28.275Z,98235.08
2023-09-20T14:07:57.515Z,98237.33
2023-09-20T14:10:36.641Z,98240.14
2023-09-20T14:13:04.884Z,98241.33
2023-09-20T14:15:33.196Z,98237.35
2023-09-20T14:18:02.700Z,98232.47
2023-09-20T14:20:31.102Z,98231.08
2023-09-20T14:22:59.625Z,98230.52
2023-09-20T14:25:29.945Z,98223.30
2023-09-20T14:27:58.415Z,98220.99
2023-09-20T14:31:27.614Z,98220.73
2023-09-20T14:35:57.287Z,98213.89
2023-09-20T14:40:27.107Z,98209.02
2023-09-20T14:43:22.108Z,98208.08
2023-09-20T14:45:50.450Z,98195.33
2023-09-20T14:48:23.204Z,98192.27
2023-09-20T14:50:51.846Z,98198.02
2023-09-20T14:53:20.288Z,98198.21
2023-09-20T14:55:49.314Z,98198.85
2023-09-20T14:58:19.182Z,98200.11
2023-09-20T15:00:50.719Z,98193.71
2023-09-20T15:03:18.947Z,98189.54
2023-09-20T15:05:47.318Z,98191.33
2023-09-20T15:08:15.535Z,98190.66
2023-09-20T15:10:46.304Z,98190.45
2023-09-20T15:13:14.606Z,98188.98
2023-09-20T15:15:46.756Z,98184.95
2023-09-20T15:18:16.041Z,98187.58
2023-09-20T15:21:24.510Z,98187.80
2023-09-20T15:23:58.025Z,98185.90
2023-09-20T15:26:26.452Z,98180.45
2023-09-20T15:28:55.919Z,98180.13
2023-09-20T15:31:43.738Z,98183.02
2023-09-20T15:34:12.180Z,98181.72
2023-09-20T15:37:28.377Z,98180.55
2023-09-20T15:39:56.615Z,98182.20
2023-09-20T15:42:24.860Z,98180.38
2023-09-20T15:44:56.557Z,98176.77
2023-09-20T15:47:24.728Z,98178.55
2023-09-20T15:50:35.378Z,98179.92
2023-09-20T15:53:03.980Z,98177.49
2023-09-20T15:55:32.046Z,98177.55
2023-09-20T15:58:00.736Z,98176.65
2023-09-20T16:00:30.642Z,98173.05
2023-09-20T16:02:59.114Z,98171.79
2023-09-20T16:05:28.297Z,98171.45
2023-09-20T16:07:56.552Z,98166.82
2023-09-20T16:10:24.639Z,98168.63
2023-09-20T16:12:52.892Z,98168.28
2023-09-20T16:15:41.921Z,98167.34
2023-09-20T16:18:12.876Z,98166.20
2023-09-20T16:20:41.780Z,98166.52
2023-09-20T16:23:09.967Z,98166.36
2023-09-20T16:25:39.244Z,98168.21
2023-09-20T16:28:07.738Z,98174.56
2023-09-20T16:31:36.607Z,98174.45
2023-09-20T16:34:05.386Z,98173.25
2023-09-20T16:36:33.384Z,98168.40
2023-09-20T16:39:01.589Z,98167.09
2023-09-20T16:41:30.144Z,98167.48
2023-09-20T16:43:58.226Z,98166.92
2023-09-20T16:46:26.329Z,98167.06
2023-09-20T16:48:54.351Z,98164.71
2023-09-20T16:51:22.773Z,98166.59
2023-09-20T16:53:51.087Z,98165.54
2023-09-20T16:56:19.316Z,98163.59
2023-09-20T16:58:47.414Z,98167.40
2023-09-20T17:01:19.624Z,98166.77
2023-09-20T17:03:48.114Z,98164.83
2023-09-20T17:06:17.112Z,98167.10
2023-09-20T17:08:50.436Z,98165.13
2023-09-20T17:11:19.786Z,98162.76
2023-09-20T17:14:48.293Z,98169.89
2023-09-20T17:17:18.111Z,98163.45
2023-09-20T17:19:47.279Z,98170.58
2023-09-20T17:22:15.385Z,98168.28
2023-09-20T17:25:43.500Z,98165.10
2023-09-20T17:28:12.220Z,98175.59
2023-09-20T17:30:45.096Z,98174.31
2023-09-20T17:33:14.196Z,98174.52
2023-09-20T17:35:42.456Z,98177.77
2023-09-20T17:38:10.573Z,98174.95
2023-09-20T17:40:38.721Z,98178.11
2023-09-20T17:43:06.730Z,98177.98
2023-09-20T17:45:34.946Z,98179.48
2023-09-20T17:49:07.850Z,98180.98
2023-09-20T17:51:36.103Z,98185.14
2023-09-20T17:54:25.145Z,98186.63
2023-09-20T17:56:53.385Z,98183.25
2023-09-20T17:59:24.741Z,98186.39
2023-09-20T18:01:53.000Z,98188.61
2023-09-20T18:04:22.908Z,98186.41
2023-09-20T18:06:51.237Z,98189.48
2023-09-20T18:09:19.348Z,98184.92
2023-09-20T18:11:50.201Z,98183.23
2023-09-20T18:14:39.006Z,98180.48
2023-09-20T18:17:07.769Z,98184.67
2023-09-20T18:19:36.700Z,98187.48
2023-09-20T18:22:05.868Z,98190.09
2023-09-20T18:25:17.438Z,98192.21
2023-09-20T18:28:52.166Z,98190.80
2023-09-20T18:32:32.180Z,98190.83
2023-09-20T18:35:00.638Z,98191.98
2023-09-20T18:37:29.435Z,98196.02
2023-09-20T18:39:57.783Z,98194.28
2023-09-20T18:42:26.069Z,98199.77
2023-09-20T18:44:55.642Z,98196.31
2023-09-20T18:47:37.104Z,98200.63
2023-09-20T18:50:14.741Z,98198.17
2023-09-20T18:52:44.700Z,98203.02
2023-09-20T18:55:19.433Z,98206.23
2023-09-20T18:57:54.491Z,98206.30
2023-09-20T19:00:26.493Z,98207.11
2023-09-20T19:02:56.628Z,98206.89
2023-09-20T19:05:25.091Z,98204.78
2023-09-20T19:07:53.371Z,98204.18
2023-09-20T19:10:21.619Z,98204.92
2023-09-20T19:12:50.143Z,98208.23
2023-09-20T19:15:18.586Z,98208.98
2023-09-20T19:17:48.266Z,98211.36
2023-09-20T19:20:20.426Z,98210.15
2023-09-20T19:22:48.876Z,98204.21
2023-09-20T19:25:19.281Z,98203.25
2023-09-20T19:27:49.268Z,98207.55
2023-09-20T19:30:19.820Z,98208.77
2023-09-20T19:32:48.656Z,98207.92
2023-09-20T19:35:18.640Z,98209.79
2023-09-20T19:37:47.059Z,98209.41
2023-09-20T19:40:21.203Z,98205.24
2023-09-20T19:42:51.935Z,98207.10
2023-09-20T19:45:21.463Z,98201.83
2023-09-20T19:47:49.860Z,98209.77
2023-09-20T19:50:20.368Z,98208.89
2023-09-20T19:52:49.310Z,98209.47
2023-09-20T19:55:26.177Z,98208.73
2023-09-20T19:58:54.712Z,98213.59
2023-09-20T20:01:40.807Z,98210.71
2023-09-20T20:04:09.944Z,98209.02
2023-09-20T20:07:21.413Z,98206.34
2023-09-20T20:09:54.470Z,98211.05
2023-09-20T20:12:22.813Z,98210.06
2023-09-20T20:14:50.740Z,98212.70
2023-09-20T20:18:19.081Z,98209.63
2023-09-20T20:21:27.607Z,98208.20
2023-09-20T20:24:25.871Z,98207.19
2023-09-20T20:26:54.727Z,98201.70
2023-09-20T20:29:22.781Z,98198.30
2023-09-20T20:31:50.896Z,98198.09
2023-09-20T20:34:18.879Z,98192.78
2023-09-20T20:36:50.146Z,98200.29
2023-09-20T20:39:18.248Z,98197.55
2023-09-20T20:41:49.346Z,98195.73
2023-09-20T20:44:17.987Z,98193.84
2023-09-20T20:47:04.392Z,98193.40
2023-09-20T20:49:32.316Z,98192.36
2023-09-20T20:52:01.227Z,98187.52
2023-09-20T20:54:31.382Z,98182.36
2023-09-20T20:56:59.864Z,98183.88
2023-09-20T20:59:38.726Z,98179.99
2023-09-20T21:02:08.727Z,98180.63
2023-09-20T21:04:37.757Z,98182.14
2023-09-20T21:07:27.808Z,98183.23
2023-09-20T21:09:55.855Z,98179.06
2023-09-20T21:12:31.853Z,98178.65
2023-09-20T21:15:02.741Z,98173.52
2023-09-20T21:17:50.626Z,98169.42
2023-09-20T21:20:24.466Z,98168.83
2023-09-20T21:22:55.201Z,98165.16
2023-09-20T21:25:24.977Z,98163.64
2023-09-20T21:28:56.372Z,98162.87
2023-09-20T21:31:45.368Z,98166.52
2023-09-20T21:34:13.356Z,98162.45
2023-09-20T21:36:57.908Z,98163.80
2023-09-20T21:40:06.393Z,98161.64
2023-09-20T21:42:35.947Z,98161.55
2023-09-20T21:45:07.861Z,98159.39
2023-09-20T21:47:36.044Z,98156.64
2023-09-20T21:50:30.194Z,98155.89
2023-09-20T21:52:59.915Z,98151.21
2023-09-20T21:55:32.119Z,98148.06
2023-09-20T21:58:00.288Z,98151.04
2023-09-20T22:00:28.291Z,98151.71
2023-09-20T22:03:06.519Z,98147.85
2023-09-20T22:05:35.746Z,98147.14
2023-09-20T22:08:12.134Z,98146.06
2023-09-20T22:10:44.192Z,98142.05
2023-09-20T22:13:15.539Z,98142.05
2023-09-20T22:15:46.470Z,98143.20
2023-09-20T22:19:12.020Z,98141.95
2023-09-20T22:21:40.764Z,98140.56
2023-09-20T22:24:10.620Z,98138.83
2023-09-20T22:26:38.890Z,98138.61
2023-09-20T22:30:28.085Z,98136.78
2023-09-20T22:34:16.576Z,98136.71
2023-09-20T22:36:53.643Z,98135.55
2023-09-20T22:39:23.797Z,98135.51
2023-09-20T22:41:52.283Z,98128.98
2023-09-20T22:45:19.239Z,98127.64
2023-09-20T22:47:49.108Z,98128.91
2023-09-20T22:50:24.485Z,98121.01
2023-09-20T22:53:56.270Z,98125.97
2023-09-20T22:57:13.701Z,98122.80
2023-09-20T23:00:23.245Z,98125.09
2023-09-20T23:03:15.890Z,98124.36
2023-09-20T23:05:47.027Z,98122.89
2023-09-20T23:08:15.927Z,98121.80
2023-09-20T23:10:46.744Z,98122.96
2023-09-20T23:13:52.613Z,98125.42
2023-09-20T23:16:37.596Z,98125.20
2023-09-20T23:19:06.690Z,98126.48
2023-09-20T23:21:35.666Z,98121.95
2023-09-20T23:24:04.361Z,98120.11
2023-09-20T23:26:37.517Z,98120.86
2023-09-20T23:29:08.702Z,98124.75
2023-09-20T23:32:02.073Z,98122.14
2023-09-20T23:35:27.359Z,98119.04
2023-09-20T23:37:58.609Z,98118.07
2023-09-20T23:40:27.578Z,98116.36
2023-09-20T23:43:06.089Z,98115.02
2023-09-20T23:45:37.062Z,98114.39
2023-09-20T23:48:06.314Z,98107.63
2023-09-20T23:50:34.661Z,98106.53
2023-09-20T23:53:03.450Z,98104.06
2023-09-20T23:55:47.556Z,98107.34
2023-09-20T23:58:17.006Z,98104.52
